METAR Data
IDs: Format: Raw Decoded Include TAF

Data at: 1344 UTC 14 Dec 2019

KEFK 141336Z AUTO 35009KT 2 1/2SM RA SCT016 BKN021 OVC080 02/02 A2964 RMK AO2 T00240024
KEFK 141319Z AUTO 01005KT 7SM -RA SCT014 BKN024 OVC028 02/02 A2967 RMK AO2 T00220022
KEFK 141315Z AUTO 01007KT 7SM RA SCT014 BKN024 OVC028 03/03 A2968 RMK AO2 T00250025
KEFK 141256Z AUTO 01010KT 10SM DZ BKN029 BKN042 OVC080 03/03 A2969 RMK AO2 T00270027
KEFK 141235Z AUTO 03008KT 10SM -DZ OVC080 03/03 A2972 RMK AO2 T00290029
KEFK 141216Z AUTO 02008KT 10SM DZ OVC075 03/03 A2974 RMK AO2 T00290029
KEFK 141159Z AUTO 04004KT 7SM -RA OVC065 03/03 A2975 RMK AO2 T00330033 10033 20004
KEFK 141155Z AUTO 06004KT 7SM -RA OVC065 03/03 A2976 RMK AO2 T00320032 10032 20004
KEFK 141136Z AUTO 02003KT 4SM -RA OVC065 01/01 A2978 RMK AO2 T00110011
KEFK 141120Z AUTO 34005KT 2 1/2SM -RA OVC065 01/01 A2980 RMK AO2 T00070007
KEFK 141115Z AUTO 34004KT 2 1/2SM RA OVC065 01/01 A2980 RMK AO2 T00060006
KEFK 141056Z AUTO 00000KT 1 1/2SM -RA SCT030 SCT047 OVC065 01/01 A2982 RMK AO2 T00050005
KEFK 141039Z AUTO 00000KT 3/4SM -RA SCT014 BKN028 OVC065 01/01 A2984 RMK AO2 T00050005
KEFK 141035Z AUTO 00000KT 3/4SM -RA BKN016 BKN028 OVC055 01/01 A2984 RMK AO2 T00050005
KEFK 141016Z AUTO 00000KT 1 1/2SM -RA SCT013 BKN026 OVC065 01/01 A2986 RMK AO2 T00070007
KEFK 140955Z AUTO 00000KT 4SM RA OVC070 01/01 A2988 RMK AO2 T00080008
KEFK 140936Z AUTO 00000KT 7SM -RA SCT011 BKN029 OVC070 01/01 A2989 RMK AO2 T00100010
KEFK 140919Z AUTO 00000KT 7SM RA BKN011 BKN026 OVC110 01/01 A2991 RMK AO2 T00050005
KEFK 140915Z AUTO 00000KT 7SM RA BKN013 BKN049 OVC120 00/00 A2991 RMK AO2 T00040004
KEFK 140856Z AUTO 00000KT 7SM SCT011 BKN019 OVC100 01/01 A2992 RMK AO2 T00060006
KEFK 140839Z AUTO 00000KT 5SM -DZ BKN018 BKN025 OVC075 01/01 A2994 RMK AO2 T00080008
KEFK 140835Z AUTO 00000KT 5SM DZ OVC018 01/01 A2994 RMK AO2 T00080008
KEFK 140816Z AUTO 00000KT 5SM DZ OVC018 01/01 A2996 RMK AO2 T00070007
KEFK 140759Z AUTO 09003KT 7SM -DZ OVC020 01/01 A2997 RMK AO2 T00090009
KEFK 140755Z AUTO 10003KT 10SM -DZ OVC020 01/01 A2997 RMK AO2 T00110011
KEFK 140736Z AUTO 18003KT 4SM DZ BKN020 OVC028 01/01 A2999 RMK AO2 T00130013
KEFK 140719Z AUTO 17005KT 10SM -RA SCT020 BKN028 OVC035 01/01 A3001 RMK AO2 T00120012
KEFK 140715Z AUTO 17005KT 10SM -RA SCT020 BKN026 OVC035 01/01 A3001 RMK AO2 T00120012
KEFK 140656Z AUTO 18004KT 10SM SCT020 OVC026 01/01 A3002 RMK AO2 T00110011
KEFK 140640Z AUTO 20004KT 10SM -DZ OVC024 01/01 A3002 RMK AO2 T00120012
KEFK 140635Z AUTO 19004KT 10SM -DZ SCT021 OVC027 01/01 A3003 RMK AO2 T00110011
KEFK 140616Z AUTO 18003KT 10SM -RA BKN027 OVC035 01/01 A3004 RMK AO2 T00080008
KEFK 140559Z AUTO 15005KT 10SM DZ OVC025 01/01 A3005 RMK AO2 T00070007 10010 21001
KEFK 140555Z AUTO 15004KT 10SM -DZ BKN022 OVC028 01/01 A3005 RMK AO2 T00080008 10010 21001
KEFK 140536Z AUTO 17005KT 10SM BKN022 BKN030 OVC035 01/01 A3006 RMK AO2 T00100010
KEFK 140520Z AUTO 16007KT 10SM BKN020 OVC034 01/01 A3007 RMK AO2 T00100009
KEFK 140515Z AUTO 17006KT 10SM BKN020 OVC032 01/01 A3007 RMK AO2 T00100010
KEFK 140456Z AUTO 16007KT 10SM OVC018 01/01 A3009 RMK AO2 T00080008 400151063
KEFK 140439Z AUTO 16004KT 10SM SCT011 OVC016 01/01 A3010 RMK AO2 T00060006
KEFK 140435Z AUTO 16003KT 10SM SCT011 OVC016 01/01 A3011 RMK AO2 T00060006
KEFK 140416Z AUTO 00000KT 5SM -RA BKN009 OVC013 00/00 A3012 RMK AO2 T00020002
KEFK 140355Z AUTO 00000KT 4SM DZ BKN007 OVC014 00/00 A3012 RMK AO2 T00020002
KEFK 140336Z AUTO 17003KT 5SM DZ OVC014 01/01 A3013 RMK AO2 T00050005
KEFK 140319Z AUTO 17004KT 5SM DZ OVC016 01/01 A3015 RMK AO2 T00050005
KEFK 140315Z AUTO 17003KT 7SM DZ OVC016 00/00 A3015 RMK AO2 T00040004
KEFK 140256Z AUTO 00000KT 5SM UP SCT006 OVC014 00/00 A3015 RMK AO2 T00000000
KEFK 140235Z AUTO 00000KT 7SM -DZ SCT006 OVC016 00/00 A3017 RMK AO2 T00000000
KEFK 140216Z AUTO 00000KT 10SM UP OVC016 00/00 A3017 RMK AO2 T00020002
KEFK 140159Z AUTO 15003KT 7SM UP OVC016 00/00 A3018 RMK AO2 T00010001
KEFK 140155Z AUTO 00000KT 7SM UP OVC016 00/00 A3018 RMK AO2 T00010001
KEFK 140136Z AUTO 17006KT 7SM UP OVC014 00/00 A3018 RMK AO2 T00000000
KEFK 140115Z AUTO 00000KT 5SM -SN OVC014 00/00 A3020 RMK AO2 T00000000
KEFK 140056Z AUTO 20003KT 5SM -SN OVC014 00/00 A3020 RMK AO2 T00001001
KEFK 140039Z AUTO 18003KT 3SM -SN OVC014 00/00 A3021 RMK AO2 T00001002
KEFK 140035Z AUTO 16004KT 4SM -SN OVC014 00/00 A3021 RMK AO2 T00001002
KEFK 140016Z AUTO 00000KT 7SM UP OVC014 00/00 A3022 RMK AO2 T00001004
KEFK 132355Z AUTO 00000KT 7SM UP OVC012 00/00 A3022 RMK AO2 T00001003 10013 20000
KEFK 132336Z AUTO 18004KT 5SM -SN OVC014 00/00 A3023 RMK AO2 T00001005
KEFK 132319Z AUTO 17004KT 5SM -SN OVC016 00/M01 A3023 RMK AO2 T00011010
KEFK 132315Z AUTO 17003KT 7SM -SN OVC016 00/M01 A3023 RMK AO2 T00011011
KEFK 132256Z AUTO 16007KT 10SM OVC018 00/M01 A3023 RMK AO2 T00021015
KEFK 132235Z AUTO 15004KT 10SM OVC018 00/M02 A3024 RMK AO2 T00011017
KEFK 132216Z AUTO 16007KT 10SM OVC018 00/M02 A3024 RMK AO2 T00001017
KEFK 132159Z AUTO 14005KT 10SM OVC018 00/M02 A3024 RMK AO2 T00001019
KEFK 132155Z AUTO 14006KT 10SM OVC020 00/M02 A3025 RMK AO2 T00011020
KEFK 132136Z AUTO 15006KT 10SM OVC020 00/M02 A3025 RMK AO2 T00001022
KEFK 132115Z AUTO 15007KT 10SM OVC020 00/M02 A3026 RMK AO2 T00001023
KEFK 132056Z AUTO 14008KT 10SM OVC022 00/M02 A3027 RMK AO2 T00001024
KEFK 132039Z AUTO 14009KT 10SM BKN022 OVC034 00/M02 A3027 RMK AO2 T00001025
KEFK 132035Z AUTO 15008KT 10SM BKN022 OVC036 00/M03 A3027 RMK AO2 T00001026
KEFK 132016Z AUTO 16009KT 10SM BKN024 OVC037 00/M03 A3027 RMK AO2 T00011027
KEFK 131955Z AUTO 16010KT 10SM BKN026 BKN039 OVC047 00/M03 A3027 RMK AO2 T00001030
KEFK 131936Z AUTO 16011KT 10SM SCT026 SCT041 OVC047 00/M03 A3027 RMK AO2 T00001032
KEFK 131919Z AUTO 16009KT 10SM SCT037 OVC045 00/M03 A3026 RMK AO2 T00021033
KEFK 131915Z AUTO 16009KT 10SM SCT039 OVC045 00/M03 A3027 RMK AO2 T00011033
KEFK 131856Z AUTO 16011G14KT 10SM SCT028 BKN039 OVC047 00/M03 A3027 RMK AO2 T00031034
KEFK 131835Z AUTO 15012KT 10SM SCT028 OVC043 01/M03 A3028 RMK AO2 T00051033
KEFK 131816Z AUTO 15010G15KT 10SM BKN043 01/M03 A3029 RMK AO2 T00101035
KEFK 131759Z AUTO 17013G16KT 10SM SCT043 01/M03 A3030 RMK AO2 T00121033 10015 21050
KEFK 131755Z AUTO 16009G20KT 10SM SCT043 01/M03 A3029 RMK AO2 T00121034 10015 21050
KEFK 131736Z AUTO 17012G18KT 10SM CLR 01/M03 A3030 RMK AO2 T00111035
KEFK 131715Z AUTO 18011G20KT 10SM SCT039 01/M04 A3031 RMK AO2 T00071038
KEFK 131639Z AUTO 19013G16KT 10SM SCT039 00/M04 A3034 RMK AO2 T00011044
KEFK 131635Z AUTO 20011G16KT 10SM SCT039 00/M04 A3034 RMK AO2 T00001044
KEFK 131616Z AUTO 19011G19KT 10SM SCT041 00/M05 A3035 RMK AO2 T00001047
KEFK 131559Z AUTO 19008G17KT 10SM SCT041 00/M05 A3036 RMK AO2 T00001049
KEFK 131555Z AUTO 20012G17KT 10SM CLR 00/M05 A3036 RMK AO2 T00001050
KEFK 131536Z AUTO 21011G15KT 10SM CLR 00/M05 A3037 RMK AO2 T10011052
KEFK 131519Z AUTO 20011KT 10SM CLR M01/M06 A3036 RMK AO2 T10061056
KEFK 131515Z AUTO 20008KT 10SM CLR M01/M06 A3037 RMK AO2 T10081057
KEFK 131456Z AUTO 20007KT 160V220 10SM CLR M02/M06 A3037 RMK AO2 T10171062
KEFK 131435Z AUTO 19008KT 10SM CLR M02/M07 A3037 RMK AO2 T10251072
KEFK 131416Z AUTO 20007KT 10SM CLR M03/M08 A3037 RMK AO2 T10341085
KEFK 131415Z AUTO 19007KT 10SM CLR M03/M09 A3037 RMK AO2 T10341086
KEFK 131357Z AUTO 18006KT 10SM CLR M04/M09 A3037 RMK AO2 T10361090
KEFK 131336Z AUTO 18007KT 10SM CLR M04/M09 A3038 RMK AO2 T10381091
KEFK 131335Z AUTO 18007KT 10SM CLR M04/M09 A3038 RMK AO2 T10391091
KEFK 131316Z AUTO 18008G15KT 10SM CLR M04/M09 A3038 RMK AO2 T10411095
KEFK 131259Z AUTO 17010G16KT 10SM CLR M04/M10 A3038 RMK AO2 T10451099
KEFK 131255Z AUTO 17010KT 10SM CLR M05/M10 A3038 RMK AO2 T10471100
KEFK 131236Z AUTO 17013G19KT 10SM CLR M05/M10 A3037 RMK AO2 T10501105
KEFK 131220Z AUTO 17012G18KT 10SM CLR M05/M10 A3037 RMK AO2 T10491105
KEFK 131215Z AUTO 17013G18KT 10SM CLR M05/M10 A3038 RMK AO2 T10491105
KEFK 131156Z AUTO 17011G20KT 10SM CLR M05/M10 A3038 RMK AO2 T10481105 11045 21060
KEFK 131155Z AUTO 17012G20KT 10SM CLR M05/M10 A3038 RMK AO2 T10481105 11045 21060
KEFK 131136Z AUTO 17013G18KT 10SM CLR M05/M11 A3037 RMK AO2 T10481106
KEFK 131115Z AUTO 17011G21KT 10SM CLR M05/M11 A3037 RMK AO2 T10471106
KEFK 131056Z AUTO 17013G17KT 10SM SCT095 M05/M11 A3038 RMK AO2 T10471107
KEFK 131039Z AUTO 17011KT 10SM BKN095 M04/M11 A3038 RMK AO2 T10451106
KEFK 131035Z AUTO 17013KT 10SM OVC095 M04/M11 A3038 RMK AO2 T10451106
KEFK 131016Z AUTO 16011KT 10SM OVC095 M04/M11 A3038 RMK AO2 T10451106
KEFK 130955Z AUTO 15012G15KT 10SM OVC095 M04/M11 A3039 RMK AO2 T10451107
KEFK 130936Z AUTO 16011G17KT 10SM OVC095 M04/M11 A3039 RMK AO2 T10451107
KEFK 130919Z AUTO 16011KT 10SM OVC095 M04/M11 A3040 RMK AO2 T10451106
KEFK 130915Z AUTO 16010KT 10SM OVC095 M04/M11 A3040 RMK AO2 T10451107
KEFK 130856Z AUTO 16009G14KT 10SM OVC095 M04/M11 A3042 RMK AO2 T10451110
KEFK 130840Z AUTO 15010KT 10SM OVC095 M05/M11 A3042 RMK AO2 T10481106
KEFK 130835Z AUTO 15009KT 10SM OVC095 M05/M11 A3042 RMK AO2 T10491107
KEFK 130816Z AUTO 16010G16KT 10SM OVC095 M05/M11 A3042 RMK AO2 T10481113
KEFK 130759Z AUTO 16009G14KT 10SM OVC095 M05/M11 A3044 RMK AO2 T10511114
KEFK 130755Z AUTO 15009G14KT 10SM OVC095 M05/M11 A3044 RMK AO2 T10511115
KEFK 130736Z AUTO 16012G16KT 10SM OVC095 M05/M11 A3044 RMK AO2 T10531114
KEFK 130715Z AUTO 17011G17KT 10SM SCT080 OVC095 M05/M11 A3045 RMK AO2 T10551115
KEFK 130656Z AUTO 17012G20KT 10SM BKN080 OVC095 M05/M12 A3045 RMK AO2 T10551116
KEFK 130640Z AUTO 16014G19KT 10SM SCT080 OVC095 M06/M12 A3045 RMK AO2 T10571117
KEFK 130635Z AUTO 16015G19KT 10SM SCT080 OVC095 M06/M12 A3045 RMK AO2 T10571119
KEFK 130616Z AUTO 17009G15KT 10SM OVC095 M06/M12 A3046 RMK AO2 T10601120
KEFK 130600Z AUTO 16011G15KT 10SM OVC085 M06/M12 A3046 RMK AO2 T10601121
KEFK 130555Z AUTO 17012KT 10SM BKN085 M06/M12 A3047 RMK AO2 T10601124 11060 21115
KEFK 130536Z AUTO 16011G16KT 10SM BKN085 M06/M12 A3047 RMK AO2 T10621125
KEFK 130520Z AUTO 17010G15KT 10SM OVC085 M06/M13 A3047 RMK AO2 T10621126
KEFK 130515Z AUTO 16009KT 10SM OVC085 M06/M13 A3048 RMK AO2 T10611126
KEFK 130456Z AUTO 17009G15KT 10SM OVC085 M06/M13 A3048 RMK AO2 T10601127 410601115
KEFK 130435Z AUTO 16009G14KT 10SM OVC085 M06/M13 A3049 RMK AO2 T10611130
KEFK 130416Z AUTO 12004KT 10SM BKN085 BKN120 M07/M13 A3049 RMK AO2 T10751126
KEFK 130359Z AUTO 12003KT 10SM SCT085 BKN120 M08/M13 A3050 RMK AO2 T10851129
KEFK 130355Z AUTO 00000KT 10SM SCT085 BKN120 M08/M13 A3050 RMK AO2 T10841129
KEFK 130336Z AUTO 19003KT 10SM SCT085 M08/M13 A3051 RMK AO2 T10851131
KEFK 130315Z AUTO 18003KT 10SM OVC085 M09/M13 A3052 RMK AO2 T10901127
KEFK 130256Z AUTO 15003KT 10SM OVC085 M09/M13 A3053 RMK AO2 T10901126
KEFK 130240Z AUTO 00000KT 10SM OVC085 M09/M13 A3054 RMK AO2 T10951127
KEFK 130235Z AUTO 00000KT 10SM OVC085 M10/M13 A3054 RMK AO2 T10981128
KEFK 130216Z AUTO 00000KT 10SM BKN085 M11/M13 A3055 RMK AO2 T11101134
KEFK 130155Z AUTO 17003KT 10SM CLR M10/M14 A3056 RMK AO2 T11051136